Grand Princess — ZCBU5 — position and weather

sailwx.info

Track history (hours):
 
Tides and Currents Weather Stations Pressure Air Temp Water Temp Dewpoint Dewpoint Depression Visibility Wind Speed Wind Dir Waves Ship Positions

Grand Princess

Operator: Princess Cruises

Last reported at 2014-Oct-22 09:06 UTC. Time now 2014-Oct-23 20:37 UTC.
Position N 29°49' W 116°27'.

Length 289.5 m; beam 36 m; draft 8.5 m.

Type: Ship. MMSI: 310327000.

Date/timePositionNaut miles runAvg speedWind from/ knotsBaromVisibWave heightAir tempDewpointWater temp
2014-Oct-22 09:06N 29°49' W 116°27'7419.8
2014-Oct-22 05:21N 30°60' W 116°51'1620.8
2014-Oct-22 04:33N 31°16' W 116°57'2120.9
2014-Oct-22 03:33N 31°36' W 117°04'2220.8
2014-Oct-22 02:31N 31°57' W 117°11'2020.5
2014-Oct-22 01:32N 32°16' W 117°18'1515.0
2014-Oct-22 00:33N 32°30' W 117°18'1312.9
2014-Oct-21 23:33N 32°43' W 117°13'2 2.4
2014-Oct-21 22:31N 32°43' W 117°10'0 0.0
2014-Oct-21 21:31N 32°43' W 117°10'0 0.0
2014-Oct-21 20:33N 32°43' W 117°10'0 0.0
2014-Oct-21 19:33N 32°43' W 117°10'0 0.0
2014-Oct-21 18:32N 32°43' W 117°10'0 0.0
2014-Oct-21 17:31N 32°43' W 117°10'0 0.0
2014-Oct-21 16:31N 32°43' W 117°10'0 0.0
2014-Oct-21 15:33N 32°43' W 117°10'0 0.0
2014-Oct-21 14:33N 32°43' W 117°10'0 0.0
2014-Oct-21 13:33N 32°43' W 117°10'7 6.5
2014-Oct-21 12:33N 32°37' W 117°14'1212.3
2014-Oct-21 11:33N 32°28' W 117°23'1413.2
2014-Oct-21 10:31N 32°21' W 117°37'1313.1
2014-Oct-21 09:30N 32°17' W 117°53'1412.9
2014-Oct-21 08:26N 32°15' W 118°09'1212.6
2014-Oct-21 07:27N 32°26' W 118°03'1513.7
2014-Oct-21 06:23N 32°38' W 117°52'1012.7
2014-Oct-21 05:33N 32°48' W 117°49'1313.0
2014-Oct-21 04:33N 33°00' W 117°53'1413.3
2014-Oct-21 03:31N 33°12' W 118°03'1713.5
2014-Oct-21 02:16N 33°27' W 118°10'1013.1
2014-Oct-21 01:29N 33°37' W 118°14'8 8.6
2014-Oct-21 00:33N 33°45' W 118°16'0 0.2
2014-Oct-20 23:32N 33°45' W 118°17'0 0.0
2014-Oct-20 22:31N 33°45' W 118°17'0 0.0
2014-Oct-20 21:31N 33°45' W 118°17'0 0.0
2014-Oct-20 20:33N 33°45' W 118°17'0 0.0
2014-Oct-20 19:33N 33°45' W 118°17'0 0.0
2014-Oct-20 18:33N 33°45' W 118°17'0 0.0
2014-Oct-20 17:32N 33°45' W 118°17'0 0.0
2014-Oct-20 16:32N 33°45' W 118°17'0 0.0
2014-Oct-20 15:31N 33°45' W 118°17'0 0.4
2014-Oct-20 14:33N 33°44' W 118°17'8 7.5
2014-Oct-20 13:33N 33°37' W 118°14'1513.0
2014-Oct-20 12:24N 33°41' W 118°31'1315.6
2014-Oct-20 11:33N 33°47' W 118°45'2320.1
2014-Oct-20 10:25N 33°59' W 119°09'1820.6
2014-Oct-20 09:33N 34°05' W 119°29'2120.7
2014-Oct-20 08:33N 34°11' W 119°53'2020.5
2014-Oct-20 07:33N 34°16' W 120°17'3819.1
2014-Oct-20 05:33N 34°31' W 120°59'6618.6
2014-Oct-20 02:00N 35°24' W 121°48'7822.7 280 / 71012.510.8 0.517.015.319.0
2014-Oct-19 22:33N 36°25' W 122°48'2720.9
2014-Oct-19 21:15N 36°49' W 123°03'5821.0
2014-Oct-19 18:30N 37°40' W 123°38'2020.9
2014-Oct-19 17:33N 37°58' W 123°48'2020.5
2014-Oct-19 16:33N 38°17' W 123°58'2020.2
2014-Oct-19 15:33N 38°35' W 124°08'2616.5
2014-Oct-19 14:00N 39°00' W 124°18'23119.2 150 / 151011.410.8 0.517.016.217.0
2014-Oct-19 02:00N 42°48' W 125°06'31120.1 180 / 211010.8 5.4 1.515.015.015.0
2014-Oct-18 10:33N 47°59' W 125°15'1414.6
2014-Oct-18 09:34N 48°13' W 125°11'1515.1
2014-Oct-18 08:34N 48°27' W 125°04'1515.1
2014-Oct-18 07:34N 48°30' W 124°42'1919.1
2014-Oct-18 06:34N 48°23' W 124°15'2019.5
2014-Oct-18 05:33N 48°17' W 123°47'1616.1
2014-Oct-18 04:34N 48°22' W 123°25'1211.5
2014-Oct-18 03:33N 48°31' W 123°13'1514.7
2014-Oct-18 02:33N 48°45' W 123°07'1212.2
2014-Oct-18 01:33N 48°57' W 123°12'1717.4
2014-Oct-18 00:33N 49°13' W 123°22'1111.0
2014-Oct-17 23:33N 49°17' W 123°06'0 0.1
2014-Oct-17 22:28N 49°17' W 123°06'0 0.0
2014-Oct-17 21:34N 49°17' W 123°06'0 0.0
2014-Oct-17 20:33N 49°17' W 123°06'0 0.0
2014-Oct-17 19:33N 49°17' W 123°06'0 0.0
2014-Oct-17 18:32N 49°17' W 123°06'0 0.0
2014-Oct-17 17:32N 49°17' W 123°06'0 0.0
2014-Oct-17 16:31N 49°17' W 123°06'0 0.0
2014-Oct-17 15:31N 49°17' W 123°06'0 0.0
2014-Oct-17 14:31N 49°17' W 123°06'0 0.2
2014-Oct-17 13:33N 49°17' W 123°06'8 8.2
2014-Oct-17 12:33N 49°16' W 123°19'1312.7
2014-Oct-17 11:33N 49°04' W 123°20'1413.9
2014-Oct-17 10:33N 48°53' W 123°06'1110.6
2014-Oct-17 09:33N 48°43' W 123°11'1312.8
2014-Oct-17 08:33N 48°30' W 123°11'1212.0
2014-Oct-17 07:33N 48°22' W 123°24'8 8.3
2014-Oct-17 06:34N 48°14' W 123°29'1413.9
2014-Oct-17 05:33N 48°13' W 123°50'1515.3
2014-Oct-17 04:33N 48°19' W 124°12'1919.0
2014-Oct-17 03:33N 48°27' W 124°37'1817.5
2014-Oct-17 02:33N 48°28' W 125°04'5 8.3
2014-Oct-17 02:00N 48°24' W 125°06'1534.1 140 / 471008.210.8 4.015.011.314.0
2014-Oct-17 01:33N 48°21' W 125°28'2018.7
2014-Oct-17 00:31N 48°09' W 125°52'68519.8
2014-Oct-15 14:00N 39°24' W 136°00'21819.8 250 / 101011.210.8 3.017.016.221.0
2014-Oct-15 03:00N 37°42' W 140°06'23019.2 320 / 351013.610.8 3.517.015.322.0
2014-Oct-14 15:00N 35°06' W 143°36'20818.9 320 / 301018.810.8 2.520.010.923.0
2014-Oct-14 04:00N 32°42' W 146°36'10120.2 070 / 281021.810.8 2.521.014.225.0
2014-Oct-13 23:00N 31°30' W 148°00'13319.0 070 / 321020.0 5.4 2.523.019.927.0
2014-Oct-13 16:00N 30°00' W 149°54'35819.9 070 1019.810.8 0.523.519.626.0
2014-Oct-12 22:00N 25°48' W 154°42'   060 / 191018.810.8 1.526.124.527.0
Track history (hours):
 
Tides and Currents Weather Stations Pressure Air Temp Water Temp Dewpoint Dewpoint Depression Visibility Wind Speed Wind Dir Waves Ship Positions

Grand Princess

Operator: Princess Cruises

Last reported at 2014-Oct-22 09:06 UTC. Time now 2014-Oct-23 20:37 UTC.
Position N 29°49' W 116°27'.

Length 289.5 m; beam 36 m; draft 8.5 m.

Type: Ship. MMSI: 310327000.

Date/timePositionNaut miles runAvg speedWind from/ knotsBaromVisibWave heightAir tempDewpointWater temp
2014-Oct-22 09:06N 29°49' W 116°27'7419.8
2014-Oct-22 05:21N 30°60' W 116°51'1620.8
2014-Oct-22 04:33N 31°16' W 116°57'2120.9
2014-Oct-22 03:33N 31°36' W 117°04'2220.8
2014-Oct-22 02:31N 31°57' W 117°11'2020.5
2014-Oct-22 01:32N 32°16' W 117°18'1515.0
2014-Oct-22 00:33N 32°30' W 117°18'1312.9
2014-Oct-21 23:33N 32°43' W 117°13'2 2.4
2014-Oct-21 22:31N 32°43' W 117°10'0 0.0
2014-Oct-21 21:31N 32°43' W 117°10'0 0.0
2014-Oct-21 20:33N 32°43' W 117°10'0 0.0
2014-Oct-21 19:33N 32°43' W 117°10'0 0.0
2014-Oct-21 18:32N 32°43' W 117°10'0 0.0
2014-Oct-21 17:31N 32°43' W 117°10'0 0.0
2014-Oct-21 16:31N 32°43' W 117°10'0 0.0
2014-Oct-21 15:33N 32°43' W 117°10'0 0.0
2014-Oct-21 14:33N 32°43' W 117°10'0 0.0
2014-Oct-21 13:33N 32°43' W 117°10'7 6.5
2014-Oct-21 12:33N 32°37' W 117°14'1212.3
2014-Oct-21 11:33N 32°28' W 117°23'1413.2
2014-Oct-21 10:31N 32°21' W 117°37'1313.1
2014-Oct-21 09:30N 32°17' W 117°53'1412.9
2014-Oct-21 08:26N 32°15' W 118°09'1212.6
2014-Oct-21 07:27N 32°26' W 118°03'1513.7
2014-Oct-21 06:23N 32°38' W 117°52'1012.7
2014-Oct-21 05:33N 32°48' W 117°49'1313.0
2014-Oct-21 04:33N 33°00' W 117°53'1413.3
2014-Oct-21 03:31N 33°12' W 118°03'1713.5
2014-Oct-21 02:16N 33°27' W 118°10'1013.1
2014-Oct-21 01:29N 33°37' W 118°14'8 8.6
2014-Oct-21 00:33N 33°45' W 118°16'0 0.2
2014-Oct-20 23:32N 33°45' W 118°17'0 0.0
2014-Oct-20 22:31N 33°45' W 118°17'0 0.0
2014-Oct-20 21:31N 33°45' W 118°17'0 0.0
2014-Oct-20 20:33N 33°45' W 118°17'0 0.0
2014-Oct-20 19:33N 33°45' W 118°17'0 0.0
2014-Oct-20 18:33N 33°45' W 118°17'0 0.0
2014-Oct-20 17:32N 33°45' W 118°17'0 0.0
2014-Oct-20 16:32N 33°45' W 118°17'0 0.0
2014-Oct-20 15:31N 33°45' W 118°17'0 0.4
2014-Oct-20 14:33N 33°44' W 118°17'8 7.5
2014-Oct-20 13:33N 33°37' W 118°14'1513.0
2014-Oct-20 12:24N 33°41' W 118°31'1315.6
2014-Oct-20 11:33N 33°47' W 118°45'2320.1
2014-Oct-20 10:25N 33°59' W 119°09'1820.6
2014-Oct-20 09:33N 34°05' W 119°29'2120.7
2014-Oct-20 08:33N 34°11' W 119°53'2020.5
2014-Oct-20 07:33N 34°16' W 120°17'3819.1
2014-Oct-20 05:33N 34°31' W 120°59'6618.6
2014-Oct-20 02:00N 35°24' W 121°48'7822.7 280 / 71012.510.8 0.517.015.319.0
2014-Oct-19 22:33N 36°25' W 122°48'2720.9
2014-Oct-19 21:15N 36°49' W 123°03'5821.0
2014-Oct-19 18:30N 37°40' W 123°38'2020.9
2014-Oct-19 17:33N 37°58' W 123°48'2020.5
2014-Oct-19 16:33N 38°17' W 123°58'2020.2
2014-Oct-19 15:33N 38°35' W 124°08'2616.5
2014-Oct-19 14:00N 39°00' W 124°18'23119.2 150 / 151011.410.8 0.517.016.217.0
2014-Oct-19 02:00N 42°48' W 125°06'31120.1 180 / 211010.8 5.4 1.515.015.015.0
2014-Oct-18 10:33N 47°59' W 125°15'1414.6
2014-Oct-18 09:34N 48°13' W 125°11'1515.1
2014-Oct-18 08:34N 48°27' W 125°04'1515.1
2014-Oct-18 07:34N 48°30' W 124°42'1919.1
2014-Oct-18 06:34N 48°23' W 124°15'2019.5
2014-Oct-18 05:33N 48°17' W 123°47'1616.1
2014-Oct-18 04:34N 48°22' W 123°25'1211.5
2014-Oct-18 03:33N 48°31' W 123°13'1514.7
2014-Oct-18 02:33N 48°45' W 123°07'1212.2
2014-Oct-18 01:33N 48°57' W 123°12'1717.4
2014-Oct-18 00:33N 49°13' W 123°22'1111.0
2014-Oct-17 23:33N 49°17' W 123°06'0 0.1
2014-Oct-17 22:28N 49°17' W 123°06'0 0.0
2014-Oct-17 21:34N 49°17' W 123°06'0 0.0
2014-Oct-17 20:33N 49°17' W 123°06'0 0.0
2014-Oct-17 19:33N 49°17' W 123°06'0 0.0
2014-Oct-17 18:32N 49°17' W 123°06'0 0.0
2014-Oct-17 17:32N 49°17' W 123°06'0 0.0
2014-Oct-17 16:31N 49°17' W 123°06'0 0.0
2014-Oct-17 15:31N 49°17' W 123°06'0 0.0
2014-Oct-17 14:31N 49°17' W 123°06'0 0.2
2014-Oct-17 13:33N 49°17' W 123°06'8 8.2
2014-Oct-17 12:33N 49°16' W 123°19'1312.7
2014-Oct-17 11:33N 49°04' W 123°20'1413.9
2014-Oct-17 10:33N 48°53' W 123°06'1110.6
2014-Oct-17 09:33N 48°43' W 123°11'1312.8
2014-Oct-17 08:33N 48°30' W 123°11'1212.0
2014-Oct-17 07:33N 48°22' W 123°24'8 8.3
2014-Oct-17 06:34N 48°14' W 123°29'1413.9
2014-Oct-17 05:33N 48°13' W 123°50'1515.3
2014-Oct-17 04:33N 48°19' W 124°12'1919.0
2014-Oct-17 03:33N 48°27' W 124°37'1817.5
2014-Oct-17 02:33N 48°28' W 125°04'5 8.3
2014-Oct-17 02:00N 48°24' W 125°06'1534.1 140 / 471008.210.8 4.015.011.314.0
2014-Oct-17 01:33N 48°21' W 125°28'2018.7
2014-Oct-17 00:31N 48°09' W 125°52'68519.8
2014-Oct-15 14:00N 39°24' W 136°00'21819.8 250 / 101011.210.8 3.017.016.221.0
2014-Oct-15 03:00N 37°42' W 140°06'23019.2 320 / 351013.610.8 3.517.015.322.0
2014-Oct-14 15:00N 35°06' W 143°36'20818.9 320 / 301018.810.8 2.520.010.923.0
2014-Oct-14 04:00N 32°42' W 146°36'10120.2 070 / 281021.810.8 2.521.014.225.0
2014-Oct-13 23:00N 31°30' W 148°00'13319.0 070 / 321020.0 5.4 2.523.019.927.0
2014-Oct-13 16:00N 30°00' W 149°54'35819.9 070 1019.810.8 0.523.519.626.0
2014-Oct-12 22:00N 25°48' W 154°42'   060 / 191018.810.8 1.526.124.527.0

Dump ship's entire track history